sensor_id;sensor_type;location;lat;lon;timestamp;pressure;altitude;pressure_sealevel;temperature;humidity
58239;BME280;44037;55.638;37.356;2023-05-07T00:00:09;100212.06;;;-0.01;75.25
58239;BME280;44037;55.638;37.356;2023-05-07T00:02:37;100211.97;;;-0.02;75.14
58239;BME280;44037;55.638;37.356;2023-05-07T00:05:05;100204.13;;;-0.05;75.33
58239;BME280;44037;55.638;37.356;2023-05-07T00:07:33;100211.06;;;-0.03;76.14
58239;BME280;44037;55.638;37.356;2023-05-07T00:10:02;100220.41;;;-0.03;75.92
58239;BME280;44037;55.638;37.356;2023-05-07T00:12:31;100218.44;;;-0.07;76.10
58239;BME280;44037;55.638;37.356;2023-05-07T00:14:59;100219.16;;;-0.10;75.98
58239;BME280;44037;55.638;37.356;2023-05-07T00:17:26;100213.00;;;-0.13;76.23
58239;BME280;44037;55.638;37.356;2023-05-07T00:19:53;100212.19;;;-0.12;76.38
58239;BME280;44037;55.638;37.356;2023-05-07T00:22:21;100212.78;;;-0.17;76.03
58239;BME280;44037;55.638;37.356;2023-05-07T00:24:48;100214.56;;;-0.16;76.24
58239;BME280;44037;55.638;37.356;2023-05-07T00:27:16;100213.78;;;-0.14;76.80
58239;BME280;44037;55.638;37.356;2023-05-07T00:29:43;100218.88;;;-0.14;76.85
58239;BME280;44037;55.638;37.356;2023-05-07T00:32:11;100213.56;;;-0.18;76.86
58239;BME280;44037;55.638;37.356;2023-05-07T00:34:38;100216.81;;;-0.20;76.86
58239;BME280;44037;55.638;37.356;2023-05-07T00:37:06;100221.81;;;-0.22;77.36
58239;BME280;44037;55.638;37.356;2023-05-07T00:39:34;100221.72;;;-0.23;77.94
58239;BME280;44037;55.638;37.356;2023-05-07T00:42:02;100229.16;;;-0.26;77.67
58239;BME280;44037;55.638;37.356;2023-05-07T00:44:31;100230.56;;;-0.32;78.26
58239;BME280;44037;55.638;37.356;2023-05-07T00:46:58;100230.44;;;-0.33;78.38
58239;BME280;44037;55.638;37.356;2023-05-07T00:49:34;100231.94;;;-0.37;78.78
58239;BME280;44037;55.638;37.356;2023-05-07T00:52:05;100228.59;;;-0.36;78.96
58239;BME280;44037;55.638;37.356;2023-05-07T00:54:33;100223.22;;;-0.40;79.28
58239;BME280;44037;55.638;37.356;2023-05-07T00:57:02;100228.22;;;-0.42;79.48
58239;BME280;44037;55.638;37.356;2023-05-07T00:59:31;100233.00;;;-0.47;79.25
58239;BME280;44037;55.638;37.356;2023-05-07T01:01:59;100231.16;;;-0.49;79.73
58239;BME280;44037;55.638;37.356;2023-05-07T01:04:26;100234.28;;;-0.53;80.37
58239;BME280;44037;55.638;37.356;2023-05-07T01:06:55;100227.34;;;-0.56;79.95
58239;BME280;44037;55.638;37.356;2023-05-07T01:09:23;100237.25;;;-0.60;80.74
58239;BME280;44037;55.638;37.356;2023-05-07T01:11:52;100235.41;;;-0.63;81.07
58239;BME280;44037;55.638;37.356;2023-05-07T01:14:20;100228.53;;;-0.64;81.16
58239;BME280;44037;55.638;37.356;2023-05-07T01:16:49;100239.38;;;-0.67;81.40
58239;BME280;44037;55.638;37.356;2023-05-07T01:19:18;100235.97;;;-0.67;81.57
58239;BME280;44037;55.638;37.356;2023-05-07T01:21:47;100246.34;;;-0.64;82.47
58239;BME280;44037;55.638;37.356;2023-05-07T01:24:16;100245.66;;;-0.62;81.76
58239;BME280;44037;55.638;37.356;2023-05-07T01:26:44;100250.75;;;-0.62;82.19
58239;BME280;44037;55.638;37.356;2023-05-07T01:29:12;100248.41;;;-0.58;82.52
58239;BME280;44037;55.638;37.356;2023-05-07T01:31:40;100242.72;;;-0.54;82.38
58239;BME280;44037;55.638;37.356;2023-05-07T01:34:09;100242.53;;;-0.57;81.57
58239;BME280;44037;55.638;37.356;2023-05-07T01:36:38;100246.94;;;-0.55;81.99
58239;BME280;44037;55.638;37.356;2023-05-07T01:39:08;100248.50;;;-0.57;81.83
58239;BME280;44037;55.638;37.356;2023-05-07T01:41:37;100253.69;;;-0.55;82.14
58239;BME280;44037;55.638;37.356;2023-05-07T01:44:05;100257.00;;;-0.56;82.00
58239;BME280;44037;55.638;37.356;2023-05-07T01:46:33;100267.09;;;-0.58;81.43
58239;BME280;44037;55.638;37.356;2023-05-07T01:49:01;100266.22;;;-0.58;82.01
58239;BME280;44037;55.638;37.356;2023-05-07T01:51:28;100270.53;;;-0.57;82.17
58239;BME280;44037;55.638;37.356;2023-05-07T01:53:55;100268.78;;;-0.58;81.68
58239;BME280;44037;55.638;37.356;2023-05-07T01:56:24;100271.41;;;-0.57;82.23
58239;BME280;44037;55.638;37.356;2023-05-07T01:58:52;100265.75;;;-0.53;81.78
58239;BME280;44037;55.638;37.356;2023-05-07T02:01:19;100270.06;;;-0.52;81.39
58239;BME280;44037;55.638;37.356;2023-05-07T02:03:47;100278.47;;;-0.53;81.30
58239;BME280;44037;55.638;37.356;2023-05-07T02:06:14;100282.09;;;-0.49;82.17
58239;BME280;44037;55.638;37.356;2023-05-07T02:08:41;100279.03;;;-0.43;81.60
58239;BME280;44037;55.638;37.356;2023-05-07T02:11:08;100283.94;;;-0.33;81.42
58239;BME280;44037;55.638;37.356;2023-05-07T02:13:36;100284.41;;;-0.25;80.18
58239;BME280;44037;55.638;37.356;2023-05-07T02:16:07;100287.53;;;-0.16;80.67
58239;BME280;44037;55.638;37.356;2023-05-07T02:18:34;100289.78;;;-0.07;79.48
58239;BME280;44037;55.638;37.356;2023-05-07T02:21:02;100285.09;;;-0.01;79.28
58239;BME280;44037;55.638;37.356;2023-05-07T02:23:30;100282.31;;;0.09;78.59
58239;BME280;44037;55.638;37.356;2023-05-07T02:25:57;100286.97;;;0.17;78.62
58239;BME280;44037;55.638;37.356;2023-05-07T02:28:24;100284.91;;;0.24;77.91
58239;BME280;44037;55.638;37.356;2023-05-07T02:30:52;100285.44;;;0.34;78.41
58239;BME280;44037;55.638;37.356;2023-05-07T02:33:20;100291.47;;;0.49;77.40
58239;BME280;44037;55.638;37.356;2023-05-07T02:35:47;100286.06;;;0.58;76.71
58239;BME280;44037;55.638;37.356;2023-05-07T02:38:15;100287.50;;;0.68;75.64
58239;BME280;44037;55.638;37.356;2023-05-07T02:40:42;100297.19;;;0.73;75.27
58239;BME280;44037;55.638;37.356;2023-05-07T02:43:09;100291.38;;;0.76;74.72
58239;BME280;44037;55.638;37.356;2023-05-07T02:45:37;100299.22;;;0.79;75.25
58239;BME280;44037;55.638;37.356;2023-05-07T02:48:04;100303.00;;;0.86;74.52
58239;BME280;44037;55.638;37.356;2023-05-07T02:50:34;100298.94;;;0.89;73.67
58239;BME280;44037;55.638;37.356;2023-05-07T02:53:01;100303.88;;;0.86;73.32
58239;BME280;44037;55.638;37.356;2023-05-07T02:55:29;100303.16;;;0.89;73.53
58239;BME280;44037;55.638;37.356;2023-05-07T02:57:56;100303.16;;;0.89;73.59
58239;BME280;44037;55.638;37.356;2023-05-07T03:00:24;100305.09;;;0.93;73.69
58239;BME280;44037;55.638;37.356;2023-05-07T03:02:51;100309.50;;;0.96;72.90
58239;BME280;44037;55.638;37.356;2023-05-07T03:05:18;100306.44;;;1.01;73.40
58239;BME280;44037;55.638;37.356;2023-05-07T03:07:47;100315.25;;;1.06;73.07
58239;BME280;44037;55.638;37.356;2023-05-07T03:10:14;100309.69;;;1.14;72.47
58239;BME280;44037;55.638;37.356;2023-05-07T03:12:42;100315.16;;;1.20;72.29
58239;BME280;44037;55.638;37.356;2023-05-07T03:15:10;100320.19;;;1.18;71.29
58239;BME280;44037;55.638;37.356;2023-05-07T03:17:38;100325.00;;;1.14;71.88
58239;BME280;44037;55.638;37.356;2023-05-07T03:20:06;100328.44;;;1.14;71.88
58239;BME280;44037;55.638;37.356;2023-05-07T03:22:35;100331.88;;;1.15;72.13
58239;BME280;44037;55.638;37.356;2023-05-07T03:25:04;100341.75;;;1.23;71.58
58239;BME280;44037;55.638;37.356;2023-05-07T03:27:36;100344.41;;;1.25;71.54
58239;BME280;44037;55.638;37.356;2023-05-07T03:30:04;100342.97;;;1.30;71.12
58239;BME280;44037;55.638;37.356;2023-05-07T03:32:32;100342.13;;;1.30;70.81
58239;BME280;44037;55.638;37.356;2023-05-07T03:35:00;100342.25;;;1.33;70.70
58239;BME280;44037;55.638;37.356;2023-05-07T03:37:30;100343.50;;;1.40;71.57
58239;BME280;44037;55.638;37.356;2023-05-07T03:39:57;100344.19;;;1.52;71.08
58239;BME280;44037;55.638;37.356;2023-05-07T03:42:25;100342.88;;;1.59;69.60
58239;BME280;44037;55.638;37.356;2023-05-07T03:44:53;100342.97;;;1.60;69.05
58239;BME280;44037;55.638;37.356;2023-05-07T03:47:20;100346.31;;;1.59;69.39
58239;BME280;44037;55.638;37.356;2023-05-07T03:49:47;100339.72;;;1.63;68.89
58239;BME280;44037;55.638;37.356;2023-05-07T03:52:14;100350.09;;;1.66;69.14
58239;BME280;44037;55.638;37.356;2023-05-07T03:54:42;100361.56;;;1.73;68.52
58239;BME280;44037;55.638;37.356;2023-05-07T03:57:09;100358.09;;;1.72;68.45
58239;BME280;44037;55.638;37.356;2023-05-07T03:59:37;100367.72;;;1.76;69.53
58239;BME280;44037;55.638;37.356;2023-05-07T04:02:04;100364.63;;;1.82;68.26
58239;BME280;44037;55.638;37.356;2023-05-07T04:04:32;100370.88;;;1.87;68.23
58239;BME280;44037;55.638;37.356;2023-05-07T04:06:59;100368.31;;;1.87;67.12
58239;BME280;44037;55.638;37.356;2023-05-07T04:09:26;100376.00;;;1.87;67.74
58239;BME280;44037;55.638;37.356;2023-05-07T04:11:53;100368.56;;;1.92;68.31
58239;BME280;44037;55.638;37.356;2023-05-07T04:14:20;100368.09;;;1.99;67.24
58239;BME280;44037;55.638;37.356;2023-05-07T04:16:49;100371.81;;;2.04;66.25
58239;BME280;44037;55.638;37.356;2023-05-07T04:19:16;100373.66;;;2.07;66.13
58239;BME280;44037;55.638;37.356;2023-05-07T04:21:43;100381.50;;;2.10;66.35
58239;BME280;44037;55.638;37.356;2023-05-07T04:24:10;100380.03;;;2.15;65.69
58239;BME280;44037;55.638;37.356;2023-05-07T04:26:38;100375.84;;;2.15;65.16
58239;BME280;44037;55.638;37.356;2023-05-07T04:29:05;100385.50;;;2.21;65.68
58239;BME280;44037;55.638;37.356;2023-05-07T04:31:33;100381.06;;;2.34;65.90
58239;BME280;44037;55.638;37.356;2023-05-07T04:34:01;100382.44;;;2.43;64.39
58239;BME280;44037;55.638;37.356;2023-05-07T04:36:28;100376.44;;;2.43;63.90
58239;BME280;44037;55.638;37.356;2023-05-07T04:38:56;100378.94;;;2.41;63.36
58239;BME280;44037;55.638;37.356;2023-05-07T04:41:23;100376.25;;;2.40;64.00
58239;BME280;44037;55.638;37.356;2023-05-07T04:43:50;100384.22;;;2.44;63.91
58239;BME280;44037;55.638;37.356;2023-05-07T04:46:17;100383.50;;;2.47;63.30
58239;BME280;44037;55.638;37.356;2023-05-07T04:48:44;100384.88;;;2.57;62.97
58239;BME280;44037;55.638;37.356;2023-05-07T04:51:13;100386.16;;;2.65;61.87
58239;BME280;44037;55.638;37.356;2023-05-07T04:53:40;100391.03;;;2.77;62.61
58239;BME280;44037;55.638;37.356;2023-05-07T04:56:09;100389.91;;;2.88;61.79
58239;BME280;44037;55.638;37.356;2023-05-07T04:58:36;100384.31;;;2.96;60.86
58239;BME280;44037;55.638;37.356;2023-05-07T05:01:03;100390.63;;;3.02;61.59
58239;BME280;44037;55.638;37.356;2023-05-07T05:03:32;100385.25;;;3.14;61.37
58239;BME280;44037;55.638;37.356;2023-05-07T05:06:00;100394.50;;;3.29;61.37
58239;BME280;44037;55.638;37.356;2023-05-07T05:08:29;100400.25;;;3.41;60.59
58239;BME280;44037;55.638;37.356;2023-05-07T05:10:57;100388.50;;;3.45;60.08
58239;BME280;44037;55.638;37.356;2023-05-07T05:13:24;100397.38;;;3.51;60.35
58239;BME280;44037;55.638;37.356;2023-05-07T05:15:51;100397.97;;;3.64;58.90
58239;BME280;44037;55.638;37.356;2023-05-07T05:18:18;100401.41;;;3.82;58.53
58239;BME280;44037;55.638;37.356;2023-05-07T05:20:46;100402.66;;;3.91;57.87
58239;BME280;44037;55.638;37.356;2023-05-07T05:23:13;100387.88;;;4.03;57.95
58239;BME280;44037;55.638;37.356;2023-05-07T05:25:41;100392.25;;;4.24;58.48
58239;BME280;44037;55.638;37.356;2023-05-07T05:28:09;100397.41;;;4.43;57.90
58239;BME280;44037;55.638;37.356;2023-05-07T05:30:36;100397.31;;;4.60;57.10
58239;BME280;44037;55.638;37.356;2023-05-07T05:33:03;100394.22;;;4.67;54.85
58239;BME280;44037;55.638;37.356;2023-05-07T05:35:30;100395.38;;;4.74;53.92
58239;BME280;44037;55.638;37.356;2023-05-07T05:37:57;100392.00;;;4.75;52.90
58239;BME280;44037;55.638;37.356;2023-05-07T05:40:24;100396.91;;;4.70;52.37
58239;BME280;44037;55.638;37.356;2023-05-07T05:42:53;100400.03;;;4.63;52.50
58239;BME280;44037;55.638;37.356;2023-05-07T05:45:20;100398.41;;;4.85;52.17
58239;BME280;44037;55.638;37.356;2023-05-07T05:47:48;100401.50;;;5.17;52.00
58239;BME280;44037;55.638;37.356;2023-05-07T05:50:15;100404.78;;;5.13;49.42
58239;BME280;44037;55.638;37.356;2023-05-07T05:52:42;100395.97;;;5.07;50.83
58239;BME280;44037;55.638;37.356;2023-05-07T05:55:09;100400.25;;;5.07;50.21
58239;BME280;44037;55.638;37.356;2023-05-07T05:57:36;100407.63;;;4.99;49.62
58239;BME280;44037;55.638;37.356;2023-05-07T06:00:06;100414.50;;;5.00;48.44
58239;BME280;44037;55.638;37.356;2023-05-07T06:02:34;100411.13;;;5.01;48.04
58239;BME280;44037;55.638;37.356;2023-05-07T06:05:05;100407.06;;;5.26;48.32
58239;BME280;44037;55.638;37.356;2023-05-07T06:07:32;100400.06;;;5.43;48.61
58239;BME280;44037;55.638;37.356;2023-05-07T06:10:00;100413.19;;;5.71;47.37
58239;BME280;44037;55.638;37.356;2023-05-07T06:12:27;100419.19;;;5.92;47.42
58239;BME280;44037;55.638;37.356;2023-05-07T06:14:54;100410.75;;;6.16;45.69
58239;BME280;44037;55.638;37.356;2023-05-07T06:17:23;100415.00;;;6.15;44.28
58239;BME280;44037;55.638;37.356;2023-05-07T06:19:51;100405.47;;;6.13;43.73
58239;BME280;44037;55.638;37.356;2023-05-07T06:22:18;100414.31;;;5.98;44.23
58239;BME280;44037;55.638;37.356;2023-05-07T06:24:45;100416.53;;;5.89;43.19
58239;BME280;44037;55.638;37.356;2023-05-07T06:27:12;100413.38;;;5.96;43.76
58239;BME280;44037;55.638;37.356;2023-05-07T06:29:39;100421.38;;;6.03;43.23
58239;BME280;44037;55.638;37.356;2023-05-07T06:32:07;100411.91;;;6.02;42.99
58239;BME280;44037;55.638;37.356;2023-05-07T06:34:36;100411.81;;;6.00;43.54
58239;BME280;44037;55.638;37.356;2023-05-07T06:37:03;100421.59;;;6.09;42.76
58239;BME280;44037;55.638;37.356;2023-05-07T06:39:30;100405.13;;;6.26;42.83
58239;BME280;44037;55.638;37.356;2023-05-07T06:41:58;100412.88;;;6.26;42.04
58239;BME280;44037;55.638;37.356;2023-05-07T06:44:25;100406.19;;;6.32;42.05
58239;BME280;44037;55.638;37.356;2023-05-07T06:46:52;100405.34;;;6.55;41.25
58239;BME280;44037;55.638;37.356;2023-05-07T06:49:19;100404.41;;;6.76;40.43
58239;BME280;44037;55.638;37.356;2023-05-07T06:51:48;100415.44;;;6.96;40.29
58239;BME280;44037;55.638;37.356;2023-05-07T06:54:15;100409.81;;;7.06;39.26
58239;BME280;44037;55.638;37.356;2023-05-07T06:56:42;100410.66;;;7.07;39.25
58239;BME280;44037;55.638;37.356;2023-05-07T06:59:10;100401.78;;;6.99;38.11
58239;BME280;44037;55.638;37.356;2023-05-07T07:01:37;100399.75;;;6.90;39.56
58239;BME280;44037;55.638;37.356;2023-05-07T07:04:04;100397.19;;;6.90;37.54
58239;BME280;44037;55.638;37.356;2023-05-07T07:06:31;100403.72;;;6.80;38.21
58239;BME280;44037;55.638;37.356;2023-05-07T07:09:00;100402.41;;;6.69;37.76
58239;BME280;44037;55.638;37.356;2023-05-07T07:11:27;100401.22;;;6.59;37.33
58239;BME280;44037;55.638;37.356;2023-05-07T07:13:54;100400.44;;;6.61;38.62
58239;BME280;44037;55.638;37.356;2023-05-07T07:16:22;100402.50;;;6.70;38.88
58239;BME280;44037;55.638;37.356;2023-05-07T07:18:49;100407.28;;;6.84;38.76
58239;BME280;44037;55.638;37.356;2023-05-07T07:21:16;100401.78;;;6.99;38.70
58239;BME280;44037;55.638;37.356;2023-05-07T07:23:43;100404.34;;;6.97;38.09
58239;BME280;44037;55.638;37.356;2023-05-07T07:26:12;100413.63;;;6.69;37.46
58239;BME280;44037;55.638;37.356;2023-05-07T07:28:43;100415.56;;;6.52;37.86
58239;BME280;44037;55.638;37.356;2023-05-07T07:31:10;100410.50;;;6.55;37.47
58239;BME280;44037;55.638;37.356;2023-05-07T07:33:37;100398.34;;;6.51;37.86
58239;BME280;44037;55.638;37.356;2023-05-07T07:36:05;100401.03;;;6.32;38.21
58239;BME280;44037;55.638;37.356;2023-05-07T07:38:33;100408.06;;;6.13;37.79
58239;BME280;44037;55.638;37.356;2023-05-07T07:41:01;100413.31;;;6.16;37.53
58239;BME280;44037;55.638;37.356;2023-05-07T07:43:30;100399.69;;;5.97;37.20
58239;BME280;44037;55.638;37.356;2023-05-07T07:45:57;100412.50;;;5.96;38.19
58239;BME280;44037;55.638;37.356;2023-05-07T07:48:24;100417.91;;;6.02;36.57
58239;BME280;44037;55.638;37.356;2023-05-07T07:50:51;100397.97;;;6.19;35.54
58239;BME280;44037;55.638;37.356;2023-05-07T07:53:19;100400.59;;;6.42;35.47
58239;BME280;44037;55.638;37.356;2023-05-07T07:55:46;100395.69;;;6.50;34.89
58239;BME280;44037;55.638;37.356;2023-05-07T07:58:13;100392.25;;;6.72;35.64
58239;BME280;44037;55.638;37.356;2023-05-07T08:00:42;100397.13;;;6.88;35.10
58239;BME280;44037;55.638;37.356;2023-05-07T08:03:09;100389.56;;;6.93;34.59
58239;BME280;44037;55.638;37.356;2023-05-07T08:05:37;100406.13;;;7.00;33.44
58239;BME280;44037;55.638;37.356;2023-05-07T08:08:05;100385.94;;;7.12;32.31
58239;BME280;44037;55.638;37.356;2023-05-07T08:10:32;100386.22;;;7.20;32.70
58239;BME280;44037;55.638;37.356;2023-05-07T08:13:04;100387.31;;;7.27;32.56
58239;BME280;44037;55.638;37.356;2023-05-07T08:15:31;100386.41;;;7.26;33.01
58239;BME280;44037;55.638;37.356;2023-05-07T08:18:01;100384.31;;;7.40;33.28
58239;BME280;44037;55.638;37.356;2023-05-07T08:20:28;100404.13;;;7.41;33.64
58239;BME280;44037;55.638;37.356;2023-05-07T08:22:56;100392.56;;;7.30;33.42
58239;BME280;44037;55.638;37.356;2023-05-07T08:25:23;100385.59;;;7.27;32.99
58239;BME280;44037;55.638;37.356;2023-05-07T08:27:51;100389.50;;;7.16;33.13
58239;BME280;44037;55.638;37.356;2023-05-07T08:30:18;100388.41;;;7.09;34.43
58239;BME280;44037;55.638;37.356;2023-05-07T08:32:45;100390.81;;;7.04;33.09
58239;BME280;44037;55.638;37.356;2023-05-07T08:35:14;100391.84;;;7.34;32.48
58239;BME280;44037;55.638;37.356;2023-05-07T08:37:41;100396.81;;;7.53;31.66
58239;BME280;44037;55.638;37.356;2023-05-07T08:40:10;100372.28;;;7.66;32.12
58239;BME280;44037;55.638;37.356;2023-05-07T08:42:37;100377.41;;;7.92;31.72
58239;BME280;44037;55.638;37.356;2023-05-07T08:45:09;100398.19;;;7.97;31.09
58239;BME280;44037;55.638;37.356;2023-05-07T08:47:42;100390.09;;;7.59;31.41
58239;BME280;44037;55.638;37.356;2023-05-07T08:50:11;100396.81;;;7.28;31.73
58239;BME280;44037;55.638;37.356;2023-05-07T08:52:40;100389.06;;;7.28;31.36
58239;BME280;44037;55.638;37.356;2023-05-07T08:55:09;100380.69;;;7.35;32.13
58239;BME280;44037;55.638;37.356;2023-05-07T08:57:36;100371.09;;;7.57;32.21
58239;BME280;44037;55.638;37.356;2023-05-07T09:00:03;100371.19;;;7.86;32.94
58239;BME280;44037;55.638;37.356;2023-05-07T09:02:33;100366.06;;;8.14;32.43
58239;BME280;44037;55.638;37.356;2023-05-07T09:05:01;100363.38;;;8.40;32.42
58239;BME280;44037;55.638;37.356;2023-05-07T09:07:30;100369.28;;;8.65;30.73
58239;BME280;44037;55.638;37.356;2023-05-07T09:10:01;100371.06;;;8.66;29.77
58239;BME280;44037;55.638;37.356;2023-05-07T09:12:30;100372.75;;;8.66;30.68
58239;BME280;44037;55.638;37.356;2023-05-07T09:14:58;100369.19;;;8.62;30.52
58239;BME280;44037;55.638;37.356;2023-05-07T09:17:26;100384.72;;;8.64;30.65
58239;BME280;44037;55.638;37.356;2023-05-07T09:19:53;100382.69;;;8.52;31.24
58239;BME280;44037;55.638;37.356;2023-05-07T09:22:21;100377.22;;;8.42;30.42
58239;BME280;44037;55.638;37.356;2023-05-07T09:24:48;100388.63;;;8.22;29.52
58239;BME280;44037;55.638;37.356;2023-05-07T09:27:17;100375.56;;;8.15;30.36
58239;BME280;44037;55.638;37.356;2023-05-07T09:29:45;100380.94;;;8.51;30.35
58239;BME280;44037;55.638;37.356;2023-05-07T09:32:14;100373.50;;;8.92;29.86
58239;BME280;44037;55.638;37.356;2023-05-07T09:34:42;100363.22;;;9.27;28.62
58239;BME280;44037;55.638;37.356;2023-05-07T09:37:10;100358.34;;;9.40;28.99
58239;BME280;44037;55.638;37.356;2023-05-07T09:39:39;100359.88;;;9.31;28.71
58239;BME280;44037;55.638;37.356;2023-05-07T09:42:07;100362.31;;;9.27;28.73
58239;BME280;44037;55.638;37.356;2023-05-07T09:44:35;100379.22;;;9.12;28.43
58239;BME280;44037;55.638;37.356;2023-05-07T09:47:05;100355.97;;;9.14;29.17
58239;BME280;44037;55.638;37.356;2023-05-07T09:49:35;100355.03;;;9.45;29.87
58239;BME280;44037;55.638;37.356;2023-05-07T09:52:03;100363.16;;;9.96;29.16
58239;BME280;44037;55.638;37.356;2023-05-07T09:54:32;100356.38;;;10.39;27.22
58239;BME280;44037;55.638;37.356;2023-05-07T09:57:01;100356.56;;;10.49;27.42
58239;BME280;44037;55.638;37.356;2023-05-07T09:59:30;100365.13;;;10.44;26.49
58239;BME280;44037;55.638;37.356;2023-05-07T10:02:00;100348.25;;;10.25;27.44
58239;BME280;44037;55.638;37.356;2023-05-07T10:04:29;100357.66;;;10.20;27.41
58239;BME280;44037;55.638;37.356;2023-05-07T10:06:58;100359.13;;;10.09;27.44
58239;BME280;44037;55.638;37.356;2023-05-07T10:09:29;100353.53;;;9.90;27.53
58239;BME280;44037;55.638;37.356;2023-05-07T10:11:58;100363.31;;;9.67;28.17
58239;BME280;44037;55.638;37.356;2023-05-07T10:14:28;100368.69;;;9.75;27.84
58239;BME280;44037;55.638;37.356;2023-05-07T10:16:56;100369.81;;;9.86;26.90
58239;BME280;44037;55.638;37.356;2023-05-07T10:19:26;100363.00;;;9.90;27.39
58239;BME280;44037;55.638;37.356;2023-05-07T10:21:59;100360.47;;;9.93;27.11
58239;BME280;44037;55.638;37.356;2023-05-07T10:24:32;100355.50;;;10.01;27.34
58239;BME280;44037;55.638;37.356;2023-05-07T10:27:02;100358.16;;;10.04;28.02
58239;BME280;44037;55.638;37.356;2023-05-07T10:29:39;100361.31;;;9.92;27.74
58239;BME280;44037;55.638;37.356;2023-05-07T10:32:26;100350.38;;;9.65;28.46
58239;BME280;44037;55.638;37.356;2023-05-07T10:35:03;100360.13;;;9.77;28.08
58239;BME280;44037;55.638;37.356;2023-05-07T10:37:32;100359.44;;;9.84;26.87
58239;BME280;44037;55.638;37.356;2023-05-07T10:40:04;100361.38;;;9.93;27.18
58239;BME280;44037;55.638;37.356;2023-05-07T10:42:35;100354.63;;;10.00;26.87
58239;BME280;44037;55.638;37.356;2023-05-07T10:45:21;100363.28;;;10.02;26.50
58239;BME280;44037;55.638;37.356;2023-05-07T10:48:10;100358.25;;;10.08;26.58
58239;BME280;44037;55.638;37.356;2023-05-07T10:50:42;100357.78;;;10.26;26.90
58239;BME280;44037;55.638;37.356;2023-05-07T10:53:24;100359.72;;;10.35;26.13
58239;BME280;44037;55.638;37.356;2023-05-07T10:56:25;100352.50;;;10.20;27.37
58239;BME280;44037;55.638;37.356;2023-05-07T10:58:56;100347.63;;;10.36;27.33
58239;BME280;44037;55.638;37.356;2023-05-07T11:01:50;100356.00;;;10.64;27.64
58239;BME280;44037;55.638;37.356;2023-05-07T11:04:18;100360.75;;;10.85;26.91
58239;BME280;44037;55.638;37.356;2023-05-07T11:10:04;100356.50;;;10.88;25.19
58239;BME280;44037;55.638;37.356;2023-05-07T11:12:48;100361.69;;;10.90;25.79
58239;BME280;44037;55.638;37.356;2023-05-07T11:15:31;100354.13;;;11.01;26.23
58239;BME280;44037;55.638;37.356;2023-05-07T11:18:00;100345.78;;;11.17;26.02
58239;BME280;44037;55.638;37.356;2023-05-07T11:20:55;100336.75;;;11.46;25.94
58239;BME280;44037;55.638;37.356;2023-05-07T11:23:57;100340.34;;;11.54;25.80
58239;BME280;44037;55.638;37.356;2023-05-07T11:26:28;100347.84;;;11.37;25.14
58239;BME280;44037;55.638;37.356;2023-05-07T11:28:55;100351.06;;;11.22;25.26
58239;BME280;44037;55.638;37.356;2023-05-07T11:31:24;100348.94;;;11.01;24.57
58239;BME280;44037;55.638;37.356;2023-05-07T11:33:53;100358.16;;;10.86;25.64
58239;BME280;44037;55.638;37.356;2023-05-07T11:36:22;100351.47;;;10.53;25.89
58239;BME280;44037;55.638;37.356;2023-05-07T11:38:50;100357.81;;;10.28;25.70
58239;BME280;44037;55.638;37.356;2023-05-07T11:41:17;100354.09;;;10.15;27.08
58239;BME280;44037;55.638;37.356;2023-05-07T11:44:02;100364.75;;;9.91;26.47
58239;BME280;44037;55.638;37.356;2023-05-07T11:46:30;100352.06;;;10.02;26.31
58239;BME280;44037;55.638;37.356;2023-05-07T11:48:58;100361.75;;;10.10;26.10
58239;BME280;44037;55.638;37.356;2023-05-07T11:51:25;100354.28;;;10.24;26.10
58239;BME280;44037;55.638;37.356;2023-05-07T11:53:53;100362.22;;;10.32;26.08
58239;BME280;44037;55.638;37.356;2023-05-07T11:56:20;100360.53;;;10.34;26.01
58239;BME280;44037;55.638;37.356;2023-05-07T11:58:49;100356.38;;;10.39;26.09
58239;BME280;44037;55.638;37.356;2023-05-07T12:01:19;100361.00;;;10.54;26.22
58239;BME280;44037;55.638;37.356;2023-05-07T12:03:46;100362.03;;;10.63;26.13
58239;BME280;44037;55.638;37.356;2023-05-07T12:06:15;100373.06;;;10.52;25.45
58239;BME280;44037;55.638;37.356;2023-05-07T12:08:44;100361.38;;;10.32;25.99
58239;BME280;44037;55.638;37.356;2023-05-07T12:11:14;100357.63;;;10.19;26.72
58239;BME280;44037;55.638;37.356;2023-05-07T12:13:43;100365.25;;;10.12;26.62
58239;BME280;44037;55.638;37.356;2023-05-07T12:16:10;100363.97;;;9.93;26.40
58239;BME280;44037;55.638;37.356;2023-05-07T12:18:39;100372.94;;;9.73;27.00
58239;BME280;44037;55.638;37.356;2023-05-07T12:21:07;100349.13;;;9.86;26.68
58239;BME280;44037;55.638;37.356;2023-05-07T12:23:36;100343.84;;;10.21;27.29
58239;BME280;44037;55.638;37.356;2023-05-07T12:26:04;100348.38;;;10.70;26.96
58239;BME280;44037;55.638;37.356;2023-05-07T12:28:32;100352.53;;;11.09;26.33
58239;BME280;44037;55.638;37.356;2023-05-07T12:31:02;100348.75;;;11.39;26.80
58239;BME280;44037;55.638;37.356;2023-05-07T12:33:31;100341.25;;;11.56;25.85
58239;BME280;44037;55.638;37.356;2023-05-07T12:36:03;100353.25;;;11.49;25.53
58239;BME280;44037;55.638;37.356;2023-05-07T12:38:35;100352.75;;;11.21;24.43
58239;BME280;44037;55.638;37.356;2023-05-07T12:41:03;100350.47;;;10.89;25.46
58239;BME280;44037;55.638;37.356;2023-05-07T12:43:30;100342.97;;;10.60;25.18
58239;BME280;44037;55.638;37.356;2023-05-07T12:46:00;100343.38;;;10.38;26.18
58239;BME280;44037;55.638;37.356;2023-05-07T12:48:28;100342.41;;;10.34;26.19
58239;BME280;44037;55.638;37.356;2023-05-07T12:50:56;100338.91;;;10.30;26.26
58239;BME280;44037;55.638;37.356;2023-05-07T12:53:26;100353.53;;;10.30;26.17
58239;BME280;44037;55.638;37.356;2023-05-07T12:55:55;100357.59;;;10.17;25.80